Time;durP1;ratioP1;P1;durP2;ratioP2;P2;SDS_P1;SDS_P2;PMS_P1;PMS_P2;Temp;Humidity;BMP_temperature;BMP_pressure;BME280_temperature;BME280_humidity;BME280_pressure;Samples;Min_cycle;Max_cycle;Signal;HPM_P1;HPM_P2
2021/08/10 00:02:27;;;;;;;;;;;;;;;22.68;29.05;98045.56;5023188;28;1976;-86
2021/08/10 00:04:53;;;;;;;;;;;;;;;22.59;29.13;98044.22;5022558;28;761;-86
2021/08/10 00:07:18;;;;;;;;;;;;;;;22.61;29.15;98038.09;5056499;28;1177;-85
2021/08/10 00:09:44;;;;;;;;;;;;;;;22.56;29.48;98036.59;5022232;28;901;-86
2021/08/10 00:12:09;;;;;;;;;;;;;;;22.60;29.02;98039.34;5022071;28;886;-86
2021/08/10 00:14:35;;;;;;;;;;;;;;;22.53;29.58;98033.84;5023505;28;972;-86
2021/08/10 00:17:00;;;;;;;;;;;;;;;22.60;29.17;98036.50;5006926;28;1293;-86
2021/08/10 00:19:26;;;;;;;;;;;;;;;22.58;29.12;98024.78;5023280;28;1072;-85
2021/08/10 00:21:57;;;;;;;;;;;;;;;22.57;29.12;98034.56;5023390;28;809;-86
2021/08/10 00:24:22;;;;;;;;;;;;;;;22.59;29.38;98029.25;4990488;28;1910;-85
2021/08/10 00:26:48;;;;;;;;;;;;;;;22.64;29.28;98028.69;5023078;28;938;-85
2021/08/10 00:29:14;;;;;;;;;;;;;;;22.67;28.99;98036.28;5039365;28;1335;-86
2021/08/10 00:31:39;;;;;;;;;;;;;;;22.54;29.17;98033.44;5022938;28;1158;-85
2021/08/10 00:34:05;;;;;;;;;;;;;;;22.61;29.38;98035.25;5009259;28;1183;-85
2021/08/10 00:36:30;;;;;;;;;;;;;;;22.52;29.14;98029.44;5043106;28;1127;-85
2021/08/10 00:38:56;;;;;;;;;;;;;;;22.63;29.29;98032.75;5042864;28;1268;-86
2021/08/10 00:41:22;;;;;;;;;;;;;;;22.62;29.09;98031.16;5010173;28;1159;-85
2021/08/10 00:43:49;;;;;;;;;;;;;;;22.56;29.09;98027.28;5042910;28;1910;-86
2021/08/10 00:46:21;;;;;;;;;;;;;;;22.69;29.08;98028.13;5043924;28;1356;-86
2021/08/10 00:48:47;;;;;;;;;;;;;;;22.56;29.30;98013.91;5042809;28;1285;-86
2021/08/10 00:51:15;;;;;;;;;;;;;;;22.52;29.48;98032.28;5010070;28;1254;-86
2021/08/10 00:53:46;;;;;;;;;;;;;;;22.68;28.93;98018.00;5009572;28;1354;-85
2021/08/10 00:56:15;;;;;;;;;;;;;;;22.70;29.14;98015.53;5010809;28;1269;-86
2021/08/10 00:58:43;;;;;;;;;;;;;;;22.60;28.98;98023.13;5042625;28;1219;-85
2021/08/10 01:01:10;;;;;;;;;;;;;;;22.59;29.24;98021.53;5026553;28;1186;-86
2021/08/10 01:03:36;;;;;;;;;;;;;;;22.65;29.15;98030.28;5041895;28;1886;-85
2021/08/10 01:06:10;;;;;;;;;;;;;;;22.57;29.19;98024.00;5010187;28;1307;-86
2021/08/10 01:08:54;;;;;;;;;;;;;;;22.58;29.21;98024.78;5008984;28;1406;-86
2021/08/10 01:11:37;;;;;;;;;;;;;;;22.64;28.94;98028.69;5042082;28;1307;-85
2021/08/10 01:14:12;;;;;;;;;;;;;;;22.57;29.16;98028.88;5042325;28;1151;-85
2021/08/10 01:16:44;;;;;;;;;;;;;;;22.61;29.29;98023.91;5059111;28;1174;-86
2021/08/10 01:19:27;;;;;;;;;;;;;;;22.47;29.55;98018.66;5042502;28;1267;-85
2021/08/10 01:21:54;;;;;;;;;;;;;;;22.62;29.02;98019.81;5009692;28;1295;-86
2021/08/10 01:24:21;;;;;;;;;;;;;;;22.60;29.08;98013.81;5009063;28;1964;-86
2021/08/10 01:26:49;;;;;;;;;;;;;;;22.56;28.98;98015.97;5041869;28;1202;-85
2021/08/10 01:29:23;;;;;;;;;;;;;;;22.58;29.15;98013.44;5042194;28;1135;-86
2021/08/10 01:31:49;;;;;;;;;;;;;;;22.62;29.03;98023.44;5042259;28;1370;-86
2021/08/10 01:34:18;;;;;;;;;;;;;;;22.63;29.03;98021.41;5041190;28;1312;-85
2021/08/10 01:36:44;;;;;;;;;;;;;;;22.63;28.83;98015.72;5042311;28;1285;-86
2021/08/10 01:39:09;;;;;;;;;;;;;;;22.56;29.21;98016.75;5041241;28;1339;-85
2021/08/10 01:41:44;;;;;;;;;;;;;;;22.58;29.38;98019.13;5009620;28;1190;-86
2021/08/10 01:44:09;;;;;;;;;;;;;;;22.59;29.14;98029.25;5041179;28;1882;-86
2021/08/10 01:46:36;;;;;;;;;;;;;;;22.65;29.01;98030.28;5041892;28;900;-85
2021/08/10 01:49:02;;;;;;;;;;;;;;;22.61;29.07;98027.53;5042176;28;1163;-85
2021/08/10 01:51:28;;;;;;;;;;;;;;;22.59;29.08;98027.19;5008637;28;1172;-85
2021/08/10 01:53:57;;;;;;;;;;;;;;;22.68;29.10;98023.69;5024476;28;1453;-86
2021/08/10 01:56:23;;;;;;;;;;;;;;;22.56;29.40;98032.97;5008548;28;1360;-85
2021/08/10 01:58:48;;;;;;;;;;;;;;;22.58;29.21;98025.59;5008181;28;1308;-85
2021/08/10 02:01:14;;;;;;;;;;;;;;;22.56;29.27;98035.81;5008934;28;1317;-85
2021/08/10 02:03:40;;;;;;;;;;;;;;;22.47;29.52;98033.63;5008131;28;1906;-85
2021/08/10 02:06:11;;;;;;;;;;;;;;;22.54;29.32;98035.47;5009203;28;1388;-85
2021/08/10 02:08:39;;;;;;;;;;;;;;;22.55;29.33;98040.69;5040661;28;1240;-86
2021/08/10 02:11:05;;;;;;;;;;;;;;;22.55;29.58;98040.69;5041536;28;1319;-86
2021/08/10 02:13:33;;;;;;;;;;;;;;;22.56;29.42;98038.63;5007747;28;1142;-85
2021/08/10 02:16:12;;;;;;;;;;;;;;;22.57;29.61;98043.06;5041825;28;1328;-85
2021/08/10 02:18:42;;;;;;;;;;;;;;;22.57;29.55;98037.38;5023849;28;1010;-85
2021/08/10 02:21:18;;;;;;;;;;;;;;;22.49;29.59;98039.66;5057325;28;1311;-86
2021/08/10 02:23:47;;;;;;;;;;;;;;;22.57;29.41;98028.88;5040859;28;1969;-86
2021/08/10 02:26:13;;;;;;;;;;;;;;;22.62;29.56;98042.50;5024761;28;1134;-86
2021/08/10 02:28:41;;;;;;;;;;;;;;;22.60;29.51;98042.16;5040486;28;1276;-86
2021/08/10 02:31:07;;;;;;;;;;;;;;;22.51;29.81;98047.69;5024272;28;1216;-86
2021/08/10 02:33:37;;;;;;;;;;;;;;;22.49;29.69;98038.88;5040714;28;1313;-85
2021/08/10 02:36:02;;;;;;;;;;;;;;;22.49;29.65;98041.69;5008050;28;1175;-86
2021/08/10 02:38:33;;;;;;;;;;;;;;;22.51;29.65;98047.69;5007617;28;1387;-85
2021/08/10 02:40:59;;;;;;;;;;;;;;;22.54;29.52;98046.81;5040346;28;1222;-85
2021/08/10 02:43:29;;;;;;;;;;;;;;;22.56;29.53;98038.63;5040302;28;1969;-85
2021/08/10 02:45:57;;;;;;;;;;;;;;;22.59;29.42;98034.91;5007647;28;1151;-85
2021/08/10 02:48:23;;;;;;;;;;;;;;;22.49;29.59;98041.69;5039732;28;1235;-85
2021/08/10 02:50:49;;;;;;;;;;;;;;;22.53;29.29;98046.00;5040845;28;1187;-85
2021/08/10 02:53:14;;;;;;;;;;;;;;;22.53;29.59;98036.69;5039656;28;1276;-85
2021/08/10 02:55:41;;;;;;;;;;;;;;;22.55;29.33;98042.72;5039795;28;1485;-86
2021/08/10 02:58:10;;;;;;;;;;;;;;;22.62;29.29;98042.50;5006669;28;1346;-85
2021/08/10 03:00:54;;;;;;;;;;;;;;;22.63;29.34;98032.75;5040040;28;1170;-85
2021/08/10 03:03:21;;;;;;;;;;;;;;;22.56;29.49;98041.47;5039478;28;1969;-85
2021/08/10 03:05:47;;;;;;;;;;;;;;;22.59;29.30;98043.41;5040134;28;1177;-86
2021/08/10 03:08:38;;;;;;;;;;;;;;;22.60;29.37;98042.16;5023179;28;774;-85
2021/08/10 03:11:05;;;;;;;;;;;;;;;22.57;29.55;98041.00;5022245;28;1243;-84
2021/08/10 03:13:34;;;;;;;;;;;;;;;22.54;29.46;98046.81;5039397;28;1276;-85
2021/08/10 03:15:59;;;;;;;;;;;;;;;22.51;29.81;98050.53;5039613;28;1301;-86
2021/08/10 03:18:41;;;;;;;;;;;;;;;22.62;29.54;98048.97;5055641;28;1205;-85
2021/08/10 03:21:09;;;;;;;;;;;;;;;22.58;29.32;98047.47;5007930;28;1234;-86
2021/08/10 03:23:35;;;;;;;;;;;;;;;22.70;29.38;98058.06;5022622;28;1915;-86
2021/08/10 03:26:01;;;;;;;;;;;;;;;22.62;29.50;98053.84;5007600;28;1135;-86
2021/08/10 03:28:27;;;;;;;;;;;;;;;22.56;29.38;98058.50;5038713;28;1408;-86
2021/08/10 03:30:56;;;;;;;;;;;;;;;22.60;29.41;98062.03;5023636;28;837;-86
2021/08/10 03:33:25;;;;;;;;;;;;;;;22.65;29.48;98063.50;5006284;28;1245;-86
2021/08/10 03:35:51;;;;;;;;;;;;;;;22.57;29.56;98065.75;5007359;28;1257;-86
2021/08/10 03:38:19;;;;;;;;;;;;;;;22.69;29.44;98065.00;5007165;28;1306;-85
2021/08/10 03:40:45;;;;;;;;;;;;;;;22.71;29.45;98073.03;5006749;28;1107;-86
2021/08/10 03:43:11;;;;;;;;;;;;;;;22.73;29.25;98065.66;5038660;28;1963;-86
2021/08/10 03:45:37;;;;;;;;;;;;;;;22.64;29.38;98062.72;5006158;28;1247;-85
2021/08/10 03:48:03;;;;;;;;;;;;;;;22.73;29.30;98062.81;5039590;28;1298;-84
2021/08/10 03:50:32;;;;;;;;;;;;;;;22.69;29.57;98065.00;5023166;28;1217;-86
2021/08/10 03:52:59;;;;;;;;;;;;;;;22.67;29.40;98070.31;5039739;28;1151;-86
2021/08/10 03:55:25;;;;;;;;;;;;;;;22.48;29.96;98059.94;5006981;28;1386;-86
2021/08/10 03:57:50;;;;;;;;;;;;;;;22.65;29.43;98063.50;5006581;28;1299;-85
2021/08/10 04:00:16;;;;;;;;;;;;;;;22.60;29.64;98056.34;5039738;28;936;-86
2021/08/10 04:02:53;;;;;;;;;;;;;;;22.58;29.43;98064.50;5008026;28;1898;-86
2021/08/10 04:05:23;;;;;;;;;;;;;;;22.54;29.65;98064.63;5007003;28;1260;-85
2021/08/10 04:07:49;;;;;;;;;;;;;;;22.61;29.47;98069.28;5007867;28;1279;-86
2021/08/10 04:10:14;;;;;;;;;;;;;;;22.53;29.93;98068.69;5043739;28;1157;-86
2021/08/10 04:12:41;;;;;;;;;;;;;;;22.56;29.51;98062.13;5010272;28;1205;-85
2021/08/10 04:15:07;;;;;;;;;;;;;;;22.52;29.68;98069.94;5042916;28;1261;-86
2021/08/10 04:17:36;;;;;;;;;;;;;;;22.54;29.66;98080.84;5011580;28;1225;-86
2021/08/10 04:20:04;;;;;;;;;;;;;;;22.61;29.55;98083.47;5010663;28;1293;-86
2021/08/10 04:22:30;;;;;;;;;;;;;;;22.68;29.53;98086.06;5010531;28;1899;-85
2021/08/10 04:24:58;;;;;;;;;;;;;;;22.58;29.90;98085.13;5009977;28;1368;-85
2021/08/10 04:27:24;;;;;;;;;;;;;;;22.56;29.80;98078.34;5009587;28;1269;-85
2021/08/10 04:29:54;;;;;;;;;;;;;;;22.57;29.79;98085.59;5041968;28;1139;-86
2021/08/10 04:32:22;;;;;;;;;;;;;;;22.63;29.99;98090.25;5010947;28;1360;-85
2021/08/10 04:34:48;;;;;;;;;;;;;;;22.61;30.04;98087.09;4992931;28;1482;-84
2021/08/10 04:37:16;;;;;;;;;;;;;;;22.57;29.72;98086.38;5026336;28;1116;-85
2021/08/10 04:39:43;;;;;;;;;;;;;;;22.58;29.99;98081.50;5009190;28;1190;-86
2021/08/10 04:42:13;;;;;;;;;;;;;;;22.57;29.86;98079.94;5042894;28;1324;-85
2021/08/10 04:44:38;;;;;;;;;;;;;;;22.58;30.03;98087.97;5042093;28;1902;-85
2021/08/10 04:47:04;;;;;;;;;;;;;;;22.63;29.96;98078.13;5042306;28;1237;-85
2021/08/10 04:49:32;;;;;;;;;;;;;;;22.63;29.97;98083.78;5008868;28;1608;-85
2021/08/10 04:51:58;;;;;;;;;;;;;;;22.63;29.95;98083.78;5009582;28;1200;-86
2021/08/10 04:54:23;;;;;;;;;;;;;;;22.62;29.61;98083.00;5041771;28;1312;-86
2021/08/10 04:56:49;;;;;;;;;;;;;;;22.59;29.87;98088.81;5025484;28;1062;-85
2021/08/10 04:59:16;;;;;;;;;;;;;;;22.70;29.84;98083.59;5041729;28;1186;-86
2021/08/10 05:01:44;;;;;;;;;;;;;;;22.70;29.63;98088.47;5042047;28;1150;-85
2021/08/10 05:04:10;;;;;;;;;;;;;;;22.68;29.86;98086.06;5041932;28;1890;-86
2021/08/10 05:06:38;;;;;;;;;;;;;;;22.71;29.67;98085.19;5058743;28;923;-85
2021/08/10 05:09:06;;;;;;;;;;;;;;;22.67;29.93;98089.38;5042009;28;1258;-85
2021/08/10 05:11:32;;;;;;;;;;;;;;;22.73;29.75;98087.56;5042236;28;1170;-86
2021/08/10 05:13:58;;;;;;;;;;;;;;;22.69;30.08;98099.03;5008729;28;1182;-86
2021/08/10 05:16:24;;;;;;;;;;;;;;;22.60;30.02;98084.72;5008656;28;1193;-85
2021/08/10 05:18:49;;;;;;;;;;;;;;;22.74;29.99;98084.28;5007530;28;1135;-85
2021/08/10 05:21:17;;;;;;;;;;;;;;;22.72;29.54;98081.09;5042183;28;1371;-85
2021/08/10 05:23:46;;;;;;;;;;;;;;;22.74;29.89;98084.28;5024979;28;1910;-86
2021/08/10 05:26:12;;;;;;;;;;;;;;;22.75;29.98;98080.22;5041735;28;1389;-86
2021/08/10 05:28:42;;;;;;;;;;;;;;;22.67;29.80;98078.03;5008362;28;1396;-86
2021/08/10 05:31:08;;;;;;;;;;;;;;;22.67;29.91;98084.50;5041733;28;1296;-85
2021/08/10 05:33:35;;;;;;;;;;;;;;;22.59;30.38;98080.28;5024089;28;678;-85
2021/08/10 05:36:02;;;;;;;;;;;;;;;22.60;30.28;98084.72;5041919;28;1291;-86
2021/08/10 05:38:27;;;;;;;;;;;;;;;22.54;30.38;98081.63;5007958;28;1162;-85
2021/08/10 05:40:53;;;;;;;;;;;;;;;22.74;30.05;98072.94;5024704;28;940;-86
2021/08/10 05:43:19;;;;;;;;;;;;;;;22.63;30.24;98080.97;5039875;28;1898;-86
2021/08/10 05:45:45;;;;;;;;;;;;;;;22.67;30.14;98078.03;5057735;28;1249;-86
2021/08/10 05:48:14;;;;;;;;;;;;;;;22.72;30.14;98077.47;5040656;28;1150;-85
2021/08/10 05:50:41;;;;;;;;;;;;;;;22.67;30.24;98073.16;5041019;28;1304;-86
2021/08/10 05:53:06;;;;;;;;;;;;;;;22.73;30.20;98077.00;5007503;28;1307;-86
2021/08/10 05:55:32;;;;;;;;;;;;;;;22.75;30.02;98080.22;5040135;28;1447;-85
2021/08/10 05:57:57;;;;;;;;;;;;;;;22.80;29.68;98079.66;5007538;28;1149;-86
2021/08/10 06:00:23;;;;;;;;;;;;;;;22.70;30.12;98072.25;5024147;28;911;-86
2021/08/10 06:02:57;;;;;;;;;;;;;;;22.65;30.09;98075.66;5008612;28;1895;-86
2021/08/10 06:05:24;;;;;;;;;;;;;;;22.66;30.19;98077.22;5040808;28;1281;-86
2021/08/10 06:07:50;;;;;;;;;;;;;;;22.82;30.01;98079.97;5007422;28;1314;-85
2021/08/10 06:10:16;;;;;;;;;;;;;;;22.85;29.77;98079.09;5056307;28;1178;-85
2021/08/10 06:12:44;;;;;;;;;;;;;;;22.76;30.16;98081.00;5007697;28;1188;-86
2021/08/10 06:15:11;;;;;;;;;;;;;;;22.65;29.88;98087.00;5007217;28;1238;-86
2021/08/10 06:17:37;;;;;;;;;;;;;;;22.75;29.96;98083.03;5007202;28;1194;-85
2021/08/10 06:20:04;;;;;;;;;;;;;;;22.70;30.01;98077.13;5039830;28;1297;-85
2021/08/10 06:22:29;;;;;;;;;;;;;;;22.75;30.13;98080.22;5007964;28;1184;-86
2021/08/10 06:24:55;;;;;;;;;;;;;;;22.75;29.97;98074.53;5039698;28;1922;-86
2021/08/10 06:27:25;;;;;;;;;;;;;;;22.70;30.07;98077.94;5040260;28;1020;-84
2021/08/10 06:29:54;;;;;;;;;;;;;;;22.82;30.19;98079.97;5039815;28;1291;-85
2021/08/10 06:32:19;;;;;;;;;;;;;;;22.82;30.03;98073.50;5023680;28;671;-85
2021/08/10 06:34:45;;;;;;;;;;;;;;;22.87;29.98;98073.75;5039995;28;1340;-85
2021/08/10 06:37:11;;;;;;;;;;;;;;;22.86;30.18;98075.00;5039937;28;1141;-86
2021/08/10 06:39:36;;;;;;;;;;;;;;;22.76;30.30;98064.78;5039699;28;1333;-86
2021/08/10 06:42:02;;;;;;;;;;;;;;;22.74;30.04;98067.28;5022808;28;967;-86
2021/08/10 06:44:32;;;;;;;;;;;;;;;22.86;30.14;98075.00;5022699;28;1974;-85
2021/08/10 06:46:58;;;;;;;;;;;;;;;22.81;30.00;98067.03;5023451;28;611;-86
2021/08/10 06:49:27;;;;;;;;;;;;;;;22.74;30.05;98067.28;5007031;28;1166;-86
2021/08/10 06:51:54;;;;;;;;;;;;;;;22.72;30.39;98064.06;5040236;28;1282;-85
2021/08/10 06:54:20;;;;;;;;;;;;;;;22.77;30.12;98055.00;5039190;28;1465;-85
2021/08/10 06:56:51;;;;;;;;;;;;;;;22.85;30.26;98062.06;5040444;28;1273;-85
2021/08/10 06:59:20;;;;;;;;;;;;;;;22.81;30.44;98054.91;5006936;28;1250;-86
2021/08/10 07:01:47;;;;;;;;;;;;;;;22.89;30.17;98061.97;5040572;28;1168;-86
2021/08/10 07:04:13;;;;;;;;;;;;;;;22.76;30.32;98064.78;5022780;28;1914;-85
2021/08/10 07:06:38;;;;;;;;;;;;;;;22.75;30.65;98059.56;5056410;28;1285;-85
2021/08/10 07:09:06;;;;;;;;;;;;;;;22.71;30.74;98056.81;5006443;28;1158;-85
2021/08/10 07:11:42;;;;;;;;;;;;;;;22.70;30.75;98060.91;5007253;28;1366;-86
2021/08/10 07:14:11;;;;;;;;;;;;;;;22.76;30.64;98061.13;5038705;28;1199;-85
2021/08/10 07:16:40;;;;;;;;;;;;;;;22.92;30.11;98061.06;5039915;28;1127;-85
2021/08/10 07:19:07;;;;;;;;;;;;;;;22.76;30.56;98053.44;5006098;28;1321;-85
2021/08/10 07:21:33;;;;;;;;;;;;;;;22.80;30.61;98059.78;5039765;28;1242;-86
2021/08/10 07:24:05;;;;;;;;;;;;;;;22.70;30.48;98060.91;5006771;28;1910;-85
2021/08/10 07:26:34;;;;;;;;;;;;;;;22.88;30.37;98058.34;5006863;28;1136;-86
2021/08/10 07:29:00;;;;;;;;;;;;;;;22.80;30.57;98059.78;5038839;28;1199;-85
2021/08/10 07:31:28;;;;;;;;;;;;;;;22.97;30.14;98068.22;5007245;28;1385;-84
2021/08/10 07:33:54;;;;;;;;;;;;;;;22.84;30.40;98077.47;5005978;28;1475;-84
2021/08/10 07:36:24;;;;;;;;;;;;;;;22.92;30.32;98071.63;5006827;28;1161;-85
2021/08/10 07:38:49;;;;;;;;;;;;;;;22.90;30.40;98069.25;5005508;28;1191;-85
2021/08/10 07:41:14;;;;;;;;;;;;;;;22.87;30.61;98068.06;5039407;28;1283;-86
2021/08/10 07:43:42;;;;;;;;;;;;;;;22.86;30.41;98069.31;4994062;28;1906;-85
2021/08/10 07:46:07;;;;;;;;;;;;;;;22.96;30.53;98072.31;5043618;28;1243;-86
2021/08/10 07:48:33;;;;;;;;;;;;;;;22.86;30.80;98069.31;5042627;28;1317;-86
2021/08/10 07:51:00;;;;;;;;;;;;;;;22.84;30.74;98074.63;5043059;28;1200;-85
2021/08/10 07:53:25;;;;;;;;;;;;;;;22.90;30.76;98074.09;5009666;28;1295;-85
2021/08/10 07:55:51;;;;;;;;;;;;;;;22.84;30.81;98071.81;5042708;28;1127;-86
2021/08/10 07:58:17;;;;;;;;;;;;;;;22.92;30.78;98077.31;5009654;28;1270;-85
2021/08/10 08:00:42;;;;;;;;;;;;;;;22.81;30.92;98067.03;5043298;28;1406;-86
2021/08/10 08:03:10;;;;;;;;;;;;;;;22.81;30.82;98077.59;5042673;28;1977;-86
2021/08/10 08:05:36;;;;;;;;;;;;;;;22.94;30.55;98074.78;5042912;28;1439;-86
2021/08/10 08:08:02;;;;;;;;;;;;;;;22.91;30.52;98070.03;5042338;28;1154;-85
2021/08/10 08:10:28;;;;;;;;;;;;;;;22.95;30.70;98067.88;5009217;28;1272;-85
2021/08/10 08:12:53;;;;;;;;;;;;;;;22.80;30.66;98071.13;5009777;28;1284;-86
2021/08/10 08:15:19;;;;;;;;;;;;;;;22.82;30.96;98071.47;5042842;28;1175;-85
2021/08/10 08:17:45;;;;;;;;;;;;;;;22.87;30.51;98070.91;5010061;28;1226;-85
2021/08/10 08:20:11;;;;;;;;;;;;;;;22.97;30.70;98069.03;5009455;28;1213;-86
2021/08/10 08:22:37;;;;;;;;;;;;;;;23.02;30.60;98064.84;5009319;28;1914;-85
2021/08/10 08:25:02;;;;;;;;;;;;;;;22.95;30.45;98068.69;5009043;28;1154;-86
2021/08/10 08:27:29;;;;;;;;;;;;;;;22.86;30.78;98063.66;5009961;28;1190;-85
2021/08/10 08:29:54;;;;;;;;;;;;;;;22.94;30.58;98063.44;5025588;28;680;-85
2021/08/10 08:32:21;;;;;;;;;;;;;;;22.95;30.71;98070.72;5042400;28;1311;-86
2021/08/10 08:34:46;;;;;;;;;;;;;;;22.97;30.55;98062.56;5025560;28;734;-85
2021/08/10 08:37:13;;;;;;;;;;;;;;;22.92;30.99;98054.59;5009531;28;1277;-85
2021/08/10 08:39:38;;;;;;;;;;;;;;;23.01;30.88;98051.91;5008939;28;1292;-85
2021/08/10 08:42:05;;;;;;;;;;;;;;;22.93;30.79;98050.50;5009674;28;1194;-85
2021/08/10 08:44:35;;;;;;;;;;;;;;;22.84;30.87;98054.78;5009104;28;1898;-86
2021/08/10 08:47:03;;;;;;;;;;;;;;;23.03;30.75;98043.72;5042387;28;1327;-85
2021/08/10 08:49:29;;;;;;;;;;;;;;;22.93;30.95;98050.50;5025009;28;761;-85
2021/08/10 08:51:58;;;;;;;;;;;;;;;22.97;30.75;98042.69;5041592;28;1351;-86
2021/08/10 08:54:25;;;;;;;;;;;;;;;22.96;30.75;98043.94;5007824;28;1162;-85
2021/08/10 08:56:50;;;;;;;;;;;;;;;22.97;30.67;98039.84;4992565;28;1353;-85
2021/08/10 08:59:17;;;;;;;;;;;;;;;22.96;30.64;98036.22;5041397;28;1242;-85
2021/08/10 09:01:43;;;;;;;;;;;;;;;23.04;30.68;98033.94;5042002;28;1217;-85
2021/08/10 09:04:13;;;;;;;;;;;;;;;23.02;30.86;98036.44;5008982;28;1971;-85
2021/08/10 09:06:44;;;;;;;;;;;;;;;23.00;30.67;98039.75;5042306;28;1401;-85
2021/08/10 09:09:29;;;;;;;;;;;;;;;22.97;31.05;98034.19;5040957;28;1198;-85
2021/08/10 09:12:09;;;;;;;;;;;;;;;22.91;30.80;98033.16;5024906;28;1273;-85
2021/08/10 09:14:42;;;;;;;;;;;;;;;22.96;30.70;98032.59;5040962;28;1258;-85
2021/08/10 09:17:08;;;;;;;;;;;;;;;22.85;31.00;98028.03;5024688;28;1167;-85
2021/08/10 09:20:04;;;;;;;;;;;;;;;23.04;30.91;98022.59;5040780;28;1333;-85
2021/08/10 09:22:41;;;;;;;;;;;;;;;23.02;30.86;98010.91;5035461;28;1985;-85
2021/08/10 09:25:13;;;;;;;;;;;;;;;23.03;30.98;98021.00;5008469;28;1293;-85
2021/08/10 09:27:40;;;;;;;;;;;;;;;23.04;30.82;98011.25;5008450;28;1319;-85
2021/08/10 09:30:09;;;;;;;;;;;;;;;23.06;31.00;98009.56;5007872;28;1299;-85
2021/08/10 09:32:35;;;;;;;;;;;;;;;22.93;31.22;98016.47;5024454;28;1264;-85
2021/08/10 09:35:07;;;;;;;;;;;;;;;22.94;30.88;98012.38;5040573;28;1268;-85
2021/08/10 09:37:33;;;;;;;;;;;;;;;23.01;31.03;98018.63;5007706;28;1307;-85
2021/08/10 09:39:58;;;;;;;;;;;;;;;22.96;31.15;98016.38;5007248;28;1161;-85
2021/08/10 09:42:25;;;;;;;;;;;;;;;22.99;30.95;98015.44;5024147;28;865;-85
2021/08/10 09:44:57;;;;;;;;;;;;;;;23.11;30.74;98017.50;4991863;28;1895;-85
2021/08/10 09:47:33;;;;;;;;;;;;;;;23.16;30.88;98010.47;5057528;28;1324;-85
2021/08/10 09:50:00;;;;;;;;;;;;;;;23.00;31.01;98011.38;5040383;28;1486;-84
2021/08/10 09:52:26;;;;;;;;;;;;;;;22.92;30.99;98009.22;5040318;28;1290;-85
2021/08/10 09:54:53;;;;;;;;;;;;;;;22.94;31.02;98007.50;5007600;28;1307;-85
2021/08/10 09:57:18;;;;;;;;;;;;;;;23.08;30.95;98006.25;5040490;28;1174;-86
2021/08/10 09:59:44;;;;;;;;;;;;;;;23.07;30.85;98016.81;5007642;28;1320;-86
2021/08/10 10:02:20;;;;;;;;;;;;;;;23.03;31.32;98003.97;4992578;28;1183;-85
2021/08/10 10:04:53;;;;;;;;;;;;;;;23.00;31.00;97999.19;5040199;28;1902;-85
2021/08/10 10:07:19;;;;;;;;;;;;;;;23.00;30.88;98002.03;5040800;28;1297;-86
2021/08/10 10:09:54;;;;;;;;;;;;;;;23.13;31.14;98008.50;5008695;28;1242;-85
2021/08/10 10:12:23;;;;;;;;;;;;;;;23.03;30.94;98003.97;5045610;28;1285;-85
2021/08/10 10:14:49;;;;;;;;;;;;;;;23.17;30.92;98003.53;5043422;28;1407;-85
2021/08/10 10:17:14;;;;;;;;;;;;;;;23.14;30.96;98001.59;5027520;28;857;-85
2021/08/10 10:19:40;;;;;;;;;;;;;;;23.04;31.27;98005.56;5042428;28;1127;-85
2021/08/10 10:22:14;;;;;;;;;;;;;;;23.03;31.09;98012.50;5043685;28;995;-85
2021/08/10 10:24:40;;;;;;;;;;;;;;;23.16;31.00;98001.13;5043390;28;1914;-85
2021/08/10 10:27:06;;;;;;;;;;;;;;;22.96;31.33;98005.00;5027694;28;1260;-85
2021/08/10 10:29:31;;;;;;;;;;;;;;;23.07;31.18;97993.31;5043126;28;806;-85
2021/08/10 10:31:57;;;;;;;;;;;;;;;22.94;31.43;97989.69;5043622;28;1298;-86
2021/08/10 10:34:22;;;;;;;;;;;;;;;23.17;30.89;97994.22;5026487;28;1457;-85
2021/08/10 10:36:48;;;;;;;;;;;;;;;23.08;31.33;97986.38;5043091;28;840;-85
2021/08/10 10:39:14;;;;;;;;;;;;;;;23.08;31.19;98000.56;5042692;28;1194;-85
2021/08/10 10:41:40;;;;;;;;;;;;;;;23.15;31.36;97988.97;5043603;28;691;-85
2021/08/10 10:44:09;;;;;;;;;;;;;;;23.13;31.01;97982.97;5042442;28;1915;-85
2021/08/10 10:46:36;;;;;;;;;;;;;;;23.06;31.30;97986.06;5044004;28;1148;-85
2021/08/10 10:49:05;;;;;;;;;;;;;;;23.19;31.29;97991.69;5042355;28;920;-85
2021/08/10 10:51:30;;;;;;;;;;;;;;;23.14;31.11;97981.72;5042906;28;994;-85
2021/08/10 10:54:14;;;;;;;;;;;;;;;23.03;31.73;97976.41;5043145;28;838;-85
2021/08/10 10:56:40;;;;;;;;;;;;;;;23.04;31.59;97980.81;5059542;28;1491;-85
2021/08/10 10:59:24;;;;;;;;;;;;;;;23.04;31.38;97983.66;5042443;28;662;-85
2021/08/10 11:02:09;;;;;;;;;;;;;;;23.03;31.72;97981.28;5043185;28;1161;-85
2021/08/10 11:04:35;;;;;;;;;;;;;;;23.03;31.69;97978.44;5025460;28;1958;-85
2021/08/10 11:07:00;;;;;;;;;;;;;;;23.10;31.72;97975.34;5026039;28;1149;-85
2021/08/10 11:09:38;;;;;;;;;;;;;;;23.00;31.80;97982.19;5025792;28;1182;-85
2021/08/10 11:12:04;;;;;;;;;;;;;;;23.12;31.84;97970.03;5043496;28;737;-85
2021/08/10 11:14:35;;;;;;;;;;;;;;;23.00;31.89;97970.81;5041617;28;1335;-85
2021/08/10 11:17:07;;;;;;;;;;;;;;;23.16;31.54;97967.88;5042213;28;718;-85
2021/08/10 11:19:32;;;;;;;;;;;;;;;23.12;31.37;97967.19;5058330;28;1255;-85
2021/08/10 11:22:17;;;;;;;;;;;;;;;23.08;31.46;97960.84;5041823;28;840;-85
2021/08/10 11:24:43;;;;;;;;;;;;;;;23.22;31.21;97974.56;5042198;28;1910;-86
2021/08/10 11:27:28;;;;;;;;;;;;;;;23.24;31.36;97966.38;5042549;28;817;-84
2021/08/10 11:29:53;;;;;;;;;;;;;;;23.04;31.39;97965.84;5058630;28;1269;-85
2021/08/10 11:32:48;;;;;;;;;;;;;;;23.14;31.57;97956.16;5026234;28;1194;-85
2021/08/10 11:35:33;;;;;;;;;;;;;;;23.10;31.42;97958.31;5033058;28;987;-86
2021/08/10 11:38:05;;;;;;;;;;;;;;;23.09;31.41;97951.06;5042005;28;872;-85
2021/08/10 11:40:36;;;;;;;;;;;;;;;23.08;31.49;97960.84;5042533;28;817;-86
2021/08/10 11:43:02;;;;;;;;;;;;;;;23.02;31.91;97962.66;5042266;28;1961;-86
2021/08/10 11:45:28;;;;;;;;;;;;;;;23.07;31.71;97959.25;5041824;28;659;-85
2021/08/10 11:47:57;;;;;;;;;;;;;;;23.20;31.46;97948.66;5042364;28;1346;-85
2021/08/10 11:50:25;;;;;;;;;;;;;;;23.09;31.66;97956.75;5041524;28;875;-85
2021/08/10 11:52:51;;;;;;;;;;;;;;;23.09;31.43;97951.84;5041409;28;919;-85
2021/08/10 11:55:17;;;;;;;;;;;;;;;23.03;31.60;97942.34;5041383;28;968;-85
2021/08/10 11:57:55;;;;;;;;;;;;;;;23.16;31.72;97936.66;5041818;28;1157;-85
2021/08/10 12:00:21;;;;;;;;;;;;;;;23.26;31.61;97938.34;5041803;28;695;-85
2021/08/10 12:02:47;;;;;;;;;;;;;;;23.05;31.56;97939.84;5041693;28;1906;-85
2021/08/10 12:05:13;;;;;;;;;;;;;;;23.30;31.29;97930.47;5040916;28;997;-85
2021/08/10 12:07:48;;;;;;;;;;;;;;;23.26;31.70;97932.66;5074068;28;861;-85
2021/08/10 12:10:18;;;;;;;;;;;;;;;23.26;31.32;97931.84;5041865;28;781;-85
2021/08/10 12:12:44;;;;;;;;;;;;;;;23.19;31.76;97932.88;5025248;28;1288;-85
2021/08/10 12:15:09;;;;;;;;;;;;;;;23.20;31.74;97928.78;5041052;28;841;-85
2021/08/10 12:17:35;;;;;;;;;;;;;;;23.03;31.66;97922.47;5041875;28;910;-86
2021/08/10 12:20:00;;;;;;;;;;;;;;;23.18;31.71;97919.16;5042180;28;1148;-85
2021/08/10 12:22:27;;;;;;;;;;;;;;;23.15;31.81;97920.84;5058456;28;1280;-86
2021/08/10 12:24:53;;;;;;;;;;;;;;;23.12;31.64;97904.75;5041496;28;1976;-85
2021/08/10 12:27:18;;;;;;;;;;;;;;;23.11;31.64;97903.19;5025807;28;1167;-85
2021/08/10 12:29:44;;;;;;;;;;;;;;;23.11;31.94;97906.81;5043813;28;650;-85
2021/08/10 12:32:10;;;;;;;;;;;;;;;23.18;31.92;97914.28;5045679;28;694;-85
2021/08/10 12:34:36;;;;;;;;;;;;;;;23.13;31.87;97906.34;5045677;28;1045;-86
2021/08/10 12:37:02;;;;;;;;;;;;;;;23.22;31.40;97903.59;5028754;28;927;-85
2021/08/10 12:39:28;;;;;;;;;;;;;;;23.23;31.53;97905.19;5044915;28;1111;-85
2021/08/10 12:41:53;;;;;;;;;;;;;;;23.19;31.76;97907.34;5045192;28;749;-85
2021/08/10 12:44:22;;;;;;;;;;;;;;;23.14;31.83;97913.59;5028680;28;1975;-86
2021/08/10 12:46:48;;;;;;;;;;;;;;;23.10;31.61;97912.91;5045602;28;603;-85
2021/08/10 12:49:14;;;;;;;;;;;;;;;23.17;31.89;97906.22;5028110;28;1252;-85
2021/08/10 12:51:52;;;;;;;;;;;;;;;23.13;31.78;97903.50;5044728;28;1285;-85
2021/08/10 12:54:18;;;;;;;;;;;;;;;23.25;31.51;97907.56;5028541;28;1207;-84
2021/08/10 12:56:43;;;;;;;;;;;;;;;23.14;31.91;97907.91;5028602;28;604;-85
2021/08/10 12:59:09;;;;;;;;;;;;;;;23.18;31.65;97902.91;5028354;28;1220;-86
2021/08/10 13:01:41;;;;;;;;;;;;;;;23.22;31.45;97911.31;5044661;28;707;-85
2021/08/10 13:04:18;;;;;;;;;;;;;;;23.25;31.48;97896.19;5044601;28;1906;-85